Time;durP1;ratioP1;P1;durP2;ratioP2;P2;SDS_P1;SDS_P2;PMS_P1;PMS_P2;Temp;Humidity;BMP_temperature;BMP_pressure;BME280_temperature;BME280_humidity;BME280_pressure;Samples;Min_cycle;Max_cycle;Signal;HPM_P1;HPM_P2
2021/06/18 00:02:24;;;;;;;3.33;2.70;;;;;;;;;;5095086;28;20031;-59
2021/06/18 00:04:50;;;;;;;3.58;2.90;;;;;;;;;;5094454;28;20373;-59
2021/06/18 00:07:16;;;;;;;3.67;3.30;;;;;;;;;;5094576;28;20505;-59
2021/06/18 00:09:42;;;;;;;3.25;2.47;;;;;;;;;;5094130;28;20174;-59
2021/06/18 00:12:09;;;;;;;3.38;2.70;;;;;;;;;;5094388;28;20020;-59
2021/06/18 00:14:35;;;;;;;4.00;3.08;;;;;;;;;;5094284;28;20020;-59
2021/06/18 00:17:00;;;;;;;3.65;2.88;;;;;;;;;;5094264;28;20034;-59
2021/06/18 00:19:26;;;;;;;3.75;3.05;;;;;;;;;;5094602;28;20438;-59
2021/06/18 00:21:52;;;;;;;3.05;2.58;;;;;;;;;;5094219;28;20024;-59
2021/06/18 00:24:18;;;;;;;4.68;3.08;;;;;;;;;;5094674;28;20024;-59
2021/06/18 00:26:44;;;;;;;5.97;3.17;;;;;;;;;;5094079;28;20027;-59
2021/06/18 00:29:10;;;;;;;4.70;3.28;;;;;;;;;;5094044;28;20480;-59
2021/06/18 00:31:36;;;;;;;3.17;2.75;;;;;;;;;;5094415;28;20099;-59
2021/06/18 00:34:03;;;;;;;5.38;2.92;;;;;;;;;;5094554;28;20028;-59
2021/06/18 00:36:29;;;;;;;6.10;3.13;;;;;;;;;;5094304;28;20051;-59
2021/06/18 00:38:55;;;;;;;3.15;2.60;;;;;;;;;;5093965;28;20020;-59
2021/06/18 00:41:21;;;;;;;4.57;3.03;;;;;;;;;;5094530;28;20027;-59
2021/06/18 00:43:51;;;;;;;4.50;2.90;;;;;;;;;;5093953;28;20032;-59
2021/06/18 00:46:17;;;;;;;8.85;3.55;;;;;;;;;;5093905;28;20016;-59
2021/06/18 00:48:44;;;;;;;2.97;2.35;;;;;;;;;;5094072;28;20108;-59
2021/06/18 00:51:10;;;;;;;4.68;3.60;;;;;;;;;;5093922;28;20073;-59
2021/06/18 00:53:37;;;;;;;5.53;3.35;;;;;;;;;;5093825;28;20102;-59
2021/06/18 00:56:03;;;;;;;3.75;2.90;;;;;;;;;;5093708;28;20035;-59
2021/06/18 00:58:29;;;;;;;5.43;3.30;;;;;;;;;;5094601;28;20111;-59
2021/06/18 01:00:55;;;;;;;3.70;2.80;;;;;;;;;;5098006;28;20052;-59
2021/06/18 01:03:21;;;;;;;3.45;3.05;;;;;;;;;;5098548;28;20024;-59
2021/06/18 01:05:47;;;;;;;5.25;2.97;;;;;;;;;;5098694;28;20056;-59
2021/06/18 01:08:13;;;;;;;3.38;3.00;;;;;;;;;;5097482;28;20473;-59
2021/06/18 01:10:51;;;;;;;4.95;3.67;;;;;;;;;;5097945;28;20054;-59
2021/06/18 01:13:32;;;;;;;4.57;3.40;;;;;;;;;;5098050;28;20020;-59
2021/06/18 01:16:04;;;;;;;3.53;2.90;;;;;;;;;;5098100;28;20023;-59
2021/06/18 01:18:39;;;;;;;3.92;3.00;;;;;;;;;;5098433;28;20024;-59
2021/06/18 01:21:23;;;;;;;5.07;3.72;;;;;;;;;;5098406;28;20020;-59
2021/06/18 01:23:54;;;;;;;3.92;2.80;;;;;;;;;;5097562;28;20035;-59
2021/06/18 01:26:32;;;;;;;4.97;3.83;;;;;;;;;;5097775;28;20069;-59
2021/06/18 01:28:59;;;;;;;5.93;3.38;;;;;;;;;;5096260;28;20032;-59
2021/06/18 01:31:27;;;;;;;3.97;2.53;;;;;;;;;;5098309;28;20020;-59
2021/06/18 01:33:56;;;;;;;4.38;3.33;;;;;;;;;;5097372;28;20099;-59
2021/06/18 01:36:23;;;;;;;4.78;3.78;;;;;;;;;;5097307;28;20418;-59
2021/06/18 01:38:51;;;;;;;3.85;3.05;;;;;;;;;;5097242;28;20039;-59
2021/06/18 01:41:19;;;;;;;8.00;4.05;;;;;;;;;;5097840;28;20020;-59
2021/06/18 01:43:46;;;;;;;3.38;2.78;;;;;;;;;;5096824;28;20016;-59
2021/06/18 01:46:14;;;;;;;4.97;3.80;;;;;;;;;;5097401;28;20072;-59
2021/06/18 01:48:40;;;;;;;4.55;2.88;;;;;;;;;;5097100;28;20028;-59
2021/06/18 01:51:07;;;;;;;3.40;3.00;;;;;;;;;;5096772;28;20470;-59
2021/06/18 01:53:34;;;;;;;4.95;3.65;;;;;;;;;;5096996;28;20039;-59
2021/06/18 01:56:01;;;;;;;5.78;4.18;;;;;;;;;;5097174;28;20020;-59
2021/06/18 01:58:29;;;;;;;4.00;3.08;;;;;;;;;;5097130;28;20098;-60
2021/06/18 02:00:56;;;;;;;5.00;4.05;;;;;;;;;;5097424;28;20123;-59
2021/06/18 02:03:25;;;;;;;4.57;3.67;;;;;;;;;;5096876;28;20032;-59
2021/06/18 02:05:52;;;;;;;4.20;3.47;;;;;;;;;;5096998;28;20023;-59
2021/06/18 02:08:20;;;;;;;4.45;3.00;;;;;;;;;;5096411;28;20426;-59
2021/06/18 02:10:46;;;;;;;4.07;3.13;;;;;;;;;;5096081;28;20069;-59
2021/06/18 02:13:14;;;;;;;6.55;3.60;;;;;;;;;;5097421;28;20028;-59
2021/06/18 02:15:41;;;;;;;5.38;4.03;;;;;;;;;;5097190;28;20048;-59
2021/06/18 02:18:08;;;;;;;5.00;3.53;;;;;;;;;;5097087;28;20024;-59
2021/06/18 02:20:34;;;;;;;4.30;3.35;;;;;;;;;;5097263;28;20020;-59
2021/06/18 02:23:00;;;;;;;3.50;3.17;;;;;;;;;;5096466;28;20020;-59
2021/06/18 02:25:26;;;;;;;4.20;3.80;;;;;;;;;;5096102;28;20031;-59
2021/06/18 02:27:54;;;;;;;12.93;4.07;;;;;;;;;;5096233;28;20442;-59
2021/06/18 02:30:20;;;;;;;7.65;4.35;;;;;;;;;;5096286;28;20020;-59
2021/06/18 02:32:46;;;;;;;5.22;4.38;;;;;;;;;;5096738;28;20024;-59
2021/06/18 02:35:12;;;;;;;4.70;3.70;;;;;;;;;;5096501;28;20110;-59
2021/06/18 02:37:39;;;;;;;4.50;3.58;;;;;;;;;;5096934;28;20020;-59
2021/06/18 02:40:05;;;;;;;8.05;4.38;;;;;;;;;;5096151;28;20023;-59
2021/06/18 02:42:31;;;;;;;4.35;3.83;;;;;;;;;;5096392;28;20052;-59
2021/06/18 02:44:57;;;;;;;4.93;4.28;;;;;;;;;;5096070;28;20051;-59
2021/06/18 02:47:31;;;;;;;5.00;4.07;;;;;;;;;;5095936;28;20028;-59
2021/06/18 02:50:09;;;;;;;5.57;4.40;;;;;;;;;;5095951;28;20062;-59
2021/06/18 02:52:44;;;;;;;7.90;4.55;;;;;;;;;;5095850;28;20492;-59
2021/06/18 02:55:15;;;;;;;6.47;4.45;;;;;;;;;;5095817;28;20111;-59
2021/06/18 02:57:47;;;;;;;5.10;4.60;;;;;;;;;;5095621;28;20028;-59
2021/06/18 03:00:14;;;;;;;5.32;4.47;;;;;;;;;;5095890;28;20024;-59
2021/06/18 03:02:45;;;;;;;6.05;4.45;;;;;;;;;;5095717;28;20016;-59
2021/06/18 03:05:14;;;;;;;6.57;4.63;;;;;;;;;;5095956;28;20477;-59
2021/06/18 03:07:43;;;;;;;5.07;4.57;;;;;;;;;;5095150;28;20081;-59
2021/06/18 03:10:10;;;;;;;7.75;4.93;;;;;;;;;;5095717;28;20067;-59
2021/06/18 03:12:40;;;;;;;5.38;4.07;;;;;;;;;;5095443;28;20450;-59
2021/06/18 03:15:07;;;;;;;5.72;4.93;;;;;;;;;;5095418;28;20373;-59
2021/06/18 03:17:35;;;;;;;5.32;4.30;;;;;;;;;;5095606;28;20096;-59
2021/06/18 03:20:05;;;;;;;4.10;3.70;;;;;;;;;;5095311;28;20081;-59
2021/06/18 03:22:32;;;;;;;4.67;4.13;;;;;;;;;;5094536;28;20025;-59
2021/06/18 03:24:58;;;;;;;4.47;3.47;;;;;;;;;;5095450;28;20600;-59
2021/06/18 03:27:25;;;;;;;5.20;3.83;;;;;;;;;;5094764;28;20401;-59
2021/06/18 03:29:52;;;;;;;5.28;4.03;;;;;;;;;;5095056;28;20027;-59
2021/06/18 03:32:19;;;;;;;6.43;4.30;;;;;;;;;;5094839;28;20466;-59
2021/06/18 03:34:45;;;;;;;4.82;4.20;;;;;;;;;;5095079;28;20024;-59
2021/06/18 03:37:12;;;;;;;5.20;3.53;;;;;;;;;;5095020;28;20028;-59
2021/06/18 03:39:38;;;;;;;4.05;3.63;;;;;;;;;;5094907;28;20458;-59
2021/06/18 03:42:04;;;;;;;4.50;3.70;;;;;;;;;;5095265;28;20051;-59
2021/06/18 03:44:31;;;;;;;4.28;3.78;;;;;;;;;;5094965;28;20031;-59
2021/06/18 03:46:57;;;;;;;4.72;3.75;;;;;;;;;;5094498;28;20064;-59
2021/06/18 03:49:25;;;;;;;4.82;4.20;;;;;;;;;;5094797;28;20475;-59
2021/06/18 03:51:51;;;;;;;3.95;3.53;;;;;;;;;;5095583;28;20024;-59
2021/06/18 03:54:17;;;;;;;7.03;4.40;;;;;;;;;;5094775;28;20414;-59
2021/06/18 03:56:48;;;;;;;5.80;3.53;;;;;;;;;;5095038;28;20373;-59
2021/06/18 03:59:15;;;;;;;4.32;3.90;;;;;;;;;;5095208;28;20084;-59
2021/06/18 04:01:42;;;;;;;4.25;3.35;;;;;;;;;;5095215;28;20016;-59
2021/06/18 04:04:08;;;;;;;4.30;3.90;;;;;;;;;;5094549;28;20027;-59
2021/06/18 04:06:34;;;;;;;5.25;3.53;;;;;;;;;;5094527;28;20027;-59
2021/06/18 04:09:00;;;;;;;3.35;2.97;;;;;;;;;;5094230;28;20384;-59
2021/06/18 04:11:26;;;;;;;4.65;4.13;;;;;;;;;;5094780;28;20068;-59
2021/06/18 04:13:52;;;;;;;4.05;3.13;;;;;;;;;;5094618;28;20059;-59
2021/06/18 04:16:18;;;;;;;7.10;4.22;;;;;;;;;;5094044;28;20024;-59
2021/06/18 04:18:46;;;;;;;4.35;3.72;;;;;;;;;;5093900;28;20115;-59
2021/06/18 04:21:22;;;;;;;4.40;3.97;;;;;;;;;;5093547;28;20572;-59
2021/06/18 04:23:48;;;;;;;4.38;3.83;;;;;;;;;;5094669;28;20346;-59
2021/06/18 04:26:14;;;;;;;4.03;3.63;;;;;;;;;;5092665;28;20020;-59
2021/06/18 04:28:42;;;;;;;6.07;3.75;;;;;;;;;;5094035;28;20354;-59
2021/06/18 04:31:08;;;;;;;6.88;4.40;;;;;;;;;;5094740;28;20131;-59
2021/06/18 04:33:35;;;;;;;7.10;4.53;;;;;;;;;;5093984;28;20133;-59
2021/06/18 04:36:01;;;;;;;5.32;3.50;;;;;;;;;;5094507;28;20123;-59
2021/06/18 04:38:27;;;;;;;6.88;4.28;;;;;;;;;;5093917;28;20111;-59
2021/06/18 04:40:53;;;;;;;4.28;3.60;;;;;;;;;;5092424;28;20096;-59
2021/06/18 04:43:20;;;;;;;16.13;4.75;;;;;;;;;;5094431;28;20021;-59
2021/06/18 04:45:46;;;;;;;4.90;4.28;;;;;;;;;;5093900;28;20531;-59
2021/06/18 04:48:13;;;;;;;4.47;4.03;;;;;;;;;;5093775;28;20081;-59
2021/06/18 04:50:39;;;;;;;5.32;4.72;;;;;;;;;;5093771;28;20118;-59
2021/06/18 04:53:09;;;;;;;4.07;3.67;;;;;;;;;;5093829;28;20486;-59
2021/06/18 04:55:35;;;;;;;4.67;4.07;;;;;;;;;;5093681;28;20027;-59
2021/06/18 04:58:02;;;;;;;4.95;4.13;;;;;;;;;;5093640;28;20056;-59
2021/06/18 05:00:28;;;;;;;4.68;3.65;;;;;;;;;;5094043;28;20339;-59
2021/06/18 05:02:54;;;;;;;5.15;4.43;;;;;;;;;;5094545;28;20024;-59
2021/06/18 05:05:21;;;;;;;5.03;3.92;;;;;;;;;;5093657;28;20366;-58
2021/06/18 05:07:47;;;;;;;4.55;4.13;;;;;;;;;;5093525;28;20051;-58
2021/06/18 05:10:13;;;;;;;4.45;4.03;;;;;;;;;;5093972;28;20097;-58
2021/06/18 05:12:39;;;;;;;4.47;4.07;;;;;;;;;;5093549;28;20020;-58
2021/06/18 05:15:05;;;;;;;7.03;4.50;;;;;;;;;;5093609;28;20025;-58
2021/06/18 05:17:31;;;;;;;4.90;4.07;;;;;;;;;;5093467;28;20085;-58
2021/06/18 05:19:57;;;;;;;5.57;4.10;;;;;;;;;;5093504;28;20110;-58
2021/06/18 05:22:23;;;;;;;5.85;4.38;;;;;;;;;;5094043;28;20020;-58
2021/06/18 05:24:49;;;;;;;5.28;4.32;;;;;;;;;;5093468;28;20123;-58
2021/06/18 05:27:15;;;;;;;5.97;3.75;;;;;;;;;;5093306;28;20032;-58
2021/06/18 05:29:41;;;;;;;5.35;3.97;;;;;;;;;;5094076;28;20073;-58
2021/06/18 05:32:07;;;;;;;5.65;4.07;;;;;;;;;;5093991;28;20027;-58
2021/06/18 05:34:33;;;;;;;4.30;3.17;;;;;;;;;;5093549;28;20366;-58
2021/06/18 05:36:59;;;;;;;4.43;3.35;;;;;;;;;;5093347;28;20446;-58
2021/06/18 05:39:26;;;;;;;3.47;3.15;;;;;;;;;;5093308;28;20449;-58
2021/06/18 05:41:52;;;;;;;5.60;3.38;;;;;;;;;;5093720;28;20032;-58
2021/06/18 05:44:18;;;;;;;4.55;3.63;;;;;;;;;;5093385;28;20043;-58
2021/06/18 05:46:44;;;;;;;5.63;3.20;;;;;;;;;;5095859;28;20115;-58
2021/06/18 05:49:10;;;;;;;4.85;3.60;;;;;;;;;;5097049;28;20031;-59
2021/06/18 05:51:36;;;;;;;4.22;3.33;;;;;;;;;;5097290;28;20020;-58
2021/06/18 05:54:02;;;;;;;5.57;3.95;;;;;;;;;;5097084;28;20028;-58
2021/06/18 05:56:28;;;;;;;4.05;3.22;;;;;;;;;;5096831;28;20069;-58
2021/06/18 05:58:54;;;;;;;4.47;3.47;;;;;;;;;;5096848;28;20027;-58
2021/06/18 06:01:20;;;;;;;3.60;3.05;;;;;;;;;;5097278;28;20028;-58
2021/06/18 06:03:46;;;;;;;4.82;3.30;;;;;;;;;;5096857;28;20020;-58
2021/06/18 06:06:12;;;;;;;4.00;2.72;;;;;;;;;;5096367;28;20473;-58
2021/06/18 06:08:38;;;;;;;4.82;3.17;;;;;;;;;;5096455;28;20086;-58
2021/06/18 06:11:05;;;;;;;3.97;3.40;;;;;;;;;;5097583;28;20028;-58
2021/06/18 06:13:31;;;;;;;6.03;3.10;;;;;;;;;;5096662;28;20350;-58
2021/06/18 06:15:58;;;;;;;3.33;3.00;;;;;;;;;;5097080;28;20103;-58
2021/06/18 06:18:24;;;;;;;3.38;2.95;;;;;;;;;;5096373;28;20478;-58
2021/06/18 06:20:50;;;;;;;5.57;4.00;;;;;;;;;;5097020;28;20027;-58
2021/06/18 06:23:16;;;;;;;3.88;3.10;;;;;;;;;;5096459;28;20020;-58
2021/06/18 06:25:42;;;;;;;5.72;3.72;;;;;;;;;;5096970;28;20357;-58
2021/06/18 06:28:08;;;;;;;7.10;3.20;;;;;;;;;;5096847;28;20055;-58
2021/06/18 06:30:35;;;;;;;4.10;3.17;;;;;;;;;;5096280;28;20020;-58
2021/06/18 06:33:01;;;;;;;4.57;3.28;;;;;;;;;;5096652;28;20063;-58
2021/06/18 06:35:27;;;;;;;5.07;3.65;;;;;;;;;;5096185;28;20060;-59
2021/06/18 06:37:54;;;;;;;4.07;3.63;;;;;;;;;;5095900;28;20450;-59
2021/06/18 06:40:22;;;;;;;5.30;3.28;;;;;;;;;;5094975;28;20071;-59
2021/06/18 06:42:51;;;;;;;3.70;3.10;;;;;;;;;;5096929;28;20458;-59
2021/06/18 06:45:17;;;;;;;4.50;3.25;;;;;;;;;;5096083;28;20027;-59
2021/06/18 06:47:46;;;;;;;7.65;4.10;;;;;;;;;;5095930;28;20020;-59
2021/06/18 06:50:12;;;;;;;5.50;4.00;;;;;;;;;;5096657;28;20036;-59
2021/06/18 06:52:38;;;;;;;5.70;3.95;;;;;;;;;;5096569;28;20027;-59
2021/06/18 06:55:05;;;;;;;5.00;4.55;;;;;;;;;;5095873;28;20028;-59
2021/06/18 06:57:31;;;;;;;13.20;4.60;;;;;;;;;;5094420;28;20027;-59
2021/06/18 06:59:57;;;;;;;5.78;5.15;;;;;;;;;;5095779;28;20024;-59
2021/06/18 07:02:23;;;;;;;5.85;5.07;;;;;;;;;;5096089;28;20070;-59
2021/06/18 07:04:49;;;;;;;6.55;5.03;;;;;;;;;;5095853;28;20145;-59
2021/06/18 07:07:16;;;;;;;5.90;4.90;;;;;;;;;;5095511;28;20346;-59
2021/06/18 07:09:42;;;;;;;5.25;4.72;;;;;;;;;;5095836;28;20080;-59
2021/06/18 07:12:09;;;;;;;7.07;4.93;;;;;;;;;;5095585;28;20374;-59
2021/06/18 07:14:37;;;;;;;7.25;5.35;;;;;;;;;;5095467;28;20032;-59
2021/06/18 07:17:04;;;;;;;6.55;4.72;;;;;;;;;;5095335;28;20490;-59
2021/06/18 07:19:30;;;;;;;6.60;5.30;;;;;;;;;;5095433;28;20029;-59
2021/06/18 07:21:56;;;;;;;6.20;5.55;;;;;;;;;;5095706;28;20031;-59
2021/06/18 07:24:22;;;;;;;6.82;5.15;;;;;;;;;;5095845;28;20392;-59
2021/06/18 07:26:48;;;;;;;5.53;4.57;;;;;;;;;;5095199;28;20035;-59
2021/06/18 07:29:14;;;;;;;10.50;5.28;;;;;;;;;;5095571;28;20021;-59
2021/06/18 07:31:40;;;;;;;7.65;5.53;;;;;;;;;;5095494;28;20031;-59
2021/06/18 07:34:06;;;;;;;9.00;4.40;;;;;;;;;;5096017;28;20077;-59
2021/06/18 07:36:33;;;;;;;6.68;4.35;;;;;;;;;;5095054;28;20411;-59
2021/06/18 07:38:59;;;;;;;6.75;4.88;;;;;;;;;;5094832;28;20035;-59
2021/06/18 07:41:25;;;;;;;7.15;5.00;;;;;;;;;;5095043;28;20028;-60
2021/06/18 07:43:51;;;;;;;6.18;4.78;;;;;;;;;;5095050;28;20046;-60
2021/06/18 07:46:17;;;;;;;5.70;5.10;;;;;;;;;;5095355;28;20099;-60
2021/06/18 07:48:43;;;;;;;5.70;4.88;;;;;;;;;;5094842;28;20122;-60
2021/06/18 07:51:09;;;;;;;5.75;5.15;;;;;;;;;;5095223;28;20099;-60
2021/06/18 07:53:36;;;;;;;5.82;5.07;;;;;;;;;;5094638;28;20032;-60
2021/06/18 07:56:02;;;;;;;5.00;4.22;;;;;;;;;;5094843;28;20032;-60
2021/06/18 07:58:28;;;;;;;4.57;4.15;;;;;;;;;;5095140;28;20020;-60
2021/06/18 08:00:54;;;;;;;6.55;4.57;;;;;;;;;;5095261;28;20024;-60
2021/06/18 08:03:20;;;;;;;5.82;5.25;;;;;;;;;;5094563;28;20474;-60
2021/06/18 08:05:46;;;;;;;5.88;4.90;;;;;;;;;;5094580;28;20024;-59
2021/06/18 08:08:12;;;;;;;4.93;4.25;;;;;;;;;;5094567;28;20047;-58
2021/06/18 08:10:38;;;;;;;7.68;5.45;;;;;;;;;;5094033;28;20481;-59
2021/06/18 08:13:04;;;;;;;7.95;4.68;;;;;;;;;;5094574;28;20162;-58
2021/06/18 08:15:30;;;;;;;5.65;5.03;;;;;;;;;;5094439;28;20415;-59
2021/06/18 08:17:58;;;;;;;5.90;4.25;;;;;;;;;;5094384;28;20453;-59
2021/06/18 08:20:25;;;;;;;8.40;4.50;;;;;;;;;;5094271;28;20028;-59
2021/06/18 08:22:52;;;;;;;4.90;4.35;;;;;;;;;;5094361;28;20024;-59
2021/06/18 08:25:17;;;;;;;5.20;4.68;;;;;;;;;;5094329;28;20077;-59
2021/06/18 08:27:44;;;;;;;4.45;3.90;;;;;;;;;;5094751;28;20453;-59
2021/06/18 08:30:10;;;;;;;6.55;5.45;;;;;;;;;;5093010;28;20024;-59
2021/06/18 08:32:36;;;;;;;6.18;4.75;;;;;;;;;;5094532;28;20020;-59
2021/06/18 08:35:02;;;;;;;7.38;5.20;;;;;;;;;;5093812;28;20177;-59
2021/06/18 08:37:28;;;;;;;5.60;4.13;;;;;;;;;;5093842;28;20156;-59
2021/06/18 08:39:54;;;;;;;5.85;4.97;;;;;;;;;;5094108;28;20054;-59
2021/06/18 08:42:20;;;;;;;6.15;4.88;;;;;;;;;;5094468;28;20016;-59
2021/06/18 08:44:46;;;;;;;5.15;4.63;;;;;;;;;;5094648;28;20024;-59
2021/06/18 08:47:13;;;;;;;5.10;4.53;;;;;;;;;;5093917;28;20045;-59
2021/06/18 08:49:39;;;;;;;5.68;4.90;;;;;;;;;;5094316;28;20168;-59
2021/06/18 08:52:05;;;;;;;7.97;4.90;;;;;;;;;;5094358;28;20476;-59
2021/06/18 08:54:41;;;;;;;8.02;4.95;;;;;;;;;;5092707;28;20496;-59
2021/06/18 08:57:12;;;;;;;5.65;4.78;;;;;;;;;;5093835;28;20028;-59
2021/06/18 08:59:38;;;;;;;5.43;4.88;;;;;;;;;;5094495;28;20024;-59
2021/06/18 09:02:04;;;;;;;6.88;4.57;;;;;;;;;;5094531;28;20438;-59
2021/06/18 09:04:30;;;;;;;6.07;5.47;;;;;;;;;;5094366;28;20028;-59
2021/06/18 09:07:02;;;;;;;5.65;5.00;;;;;;;;;;5094055;28;20028;-60
2021/06/18 09:09:31;;;;;;;6.95;5.03;;;;;;;;;;5094222;28;20040;-59
2021/06/18 09:11:57;;;;;;;7.57;4.95;;;;;;;;;;5093760;28;20090;-59
2021/06/18 09:14:23;;;;;;;6.72;5.75;;;;;;;;;;5094287;28;20028;-59
2021/06/18 09:17:08;;;;;;;6.03;5.40;;;;;;;;;;5093684;28;20032;-59
2021/06/18 09:19:35;;;;;;;5.18;4.72;;;;;;;;;;5093773;28;20027;-60
2021/06/18 09:22:02;;;;;;;5.72;4.88;;;;;;;;;;5097701;28;20026;-60
2021/06/18 09:24:32;;;;;;;5.72;4.82;;;;;;;;;;5097591;28;20070;-59
2021/06/18 09:26:58;;;;;;;;;;;;;;;;;;5097974;28;20024;-59
2021/06/18 09:29:25;;;;;;;7.25;5.03;;;;;;;;;;5097864;28;20000;-60
2021/06/18 09:31:51;;;;;;;9.88;5.13;;;;;;;;;;5097902;28;20031;-59
2021/06/18 09:34:37;;;;;;;8.70;5.65;;;;;;;;;;5097541;28;20021;-60
2021/06/18 09:37:12;;;;;;;5.45;4.95;;;;;;;;;;5098004;28;20028;-59
2021/06/18 09:39:53;;;;;;;8.00;5.13;;;;;;;;;;5097414;28;20028;-59
2021/06/18 09:42:23;;;;;;;6.70;5.47;;;;;;;;;;5097443;28;20374;-59
2021/06/18 09:45:08;;;;;;;5.57;4.97;;;;;;;;;;5097873;28;20354;-60
2021/06/18 09:47:35;;;;;;;5.95;4.72;;;;;;;;;;5097575;28;20446;-60
2021/06/18 09:50:01;;;;;;;5.35;4.70;;;;;;;;;;5097260;28;20111;-60
2021/06/18 09:52:27;;;;;;;6.85;5.80;;;;;;;;;;5097561;28;20454;-62
2021/06/18 09:54:54;;;;;;;8.60;5.50;;;;;;;;;;5097245;28;20055;-61
2021/06/18 09:57:20;;;;;;;6.22;5.50;;;;;;;;;;5097325;28;20113;-61
2021/06/18 09:59:48;;;;;;;8.18;5.82;;;;;;;;;;5097375;28;20065;-61
2021/06/18 10:02:15;;;;;;;5.95;5.15;;;;;;;;;;5097097;28;20531;-60
2021/06/18 10:04:42;;;;;;;5.13;4.63;;;;;;;;;;5097038;28;20072;-61
2021/06/18 10:07:09;;;;;;;5.15;4.65;;;;;;;;;;5097418;28;20036;-61
2021/06/18 10:09:35;;;;;;;5.18;4.68;;;;;;;;;;5096579;28;20051;-60
2021/06/18 10:12:01;;;;;;;8.45;5.15;;;;;;;;;;5097332;28;20353;-60
2021/06/18 10:14:27;;;;;;;4.30;3.90;;;;;;;;;;5096716;28;20115;-61
2021/06/18 10:16:54;;;;;;;6.15;4.75;;;;;;;;;;5096701;28;20057;-61
2021/06/18 10:19:20;;;;;;;6.40;5.00;;;;;;;;;;5096719;28;20020;-61
2021/06/18 10:21:47;;;;;;;9.13;5.63;;;;;;;;;;5097537;28;20404;-61
2021/06/18 10:24:14;;;;;;;6.13;4.88;;;;;;;;;;5096890;28;20023;-61
2021/06/18 10:26:41;;;;;;;5.57;4.97;;;;;;;;;;5096325;28;20039;-61
2021/06/18 10:29:07;;;;;;;5.75;4.28;;;;;;;;;;5096470;28;20038;-61
2021/06/18 10:31:37;;;;;;;5.40;4.70;;;;;;;;;;5096693;28;20031;-61
2021/06/18 10:34:09;;;;;;;4.88;4.30;;;;;;;;;;5096487;28;20024;-61
2021/06/18 10:36:36;;;;;;;5.18;4.22;;;;;;;;;;5096899;28;20155;-61
2021/06/18 10:39:07;;;;;;;5.22;4.72;;;;;;;;;;5096261;28;20035;-61
2021/06/18 10:41:33;;;;;;;4.80;4.40;;;;;;;;;;5096613;28;20488;-61
2021/06/18 10:44:00;;;;;;;5.00;4.05;;;;;;;;;;5096258;28;20120;-61
2021/06/18 10:46:29;;;;;;;6.30;4.03;;;;;;;;;;5096741;28;20027;-61
2021/06/18 10:48:55;;;;;;;6.43;4.93;;;;;;;;;;5095924;28;20469;-60
2021/06/18 10:51:27;;;;;;;4.80;4.13;;;;;;;;;;5096127;28;20031;-61
2021/06/18 10:53:55;;;;;;;3.40;3.10;;;;;;;;;;5096330;28;20032;-60
2021/06/18 10:56:39;;;;;;;4.43;4.03;;;;;;;;;;5095802;28;20031;-60
2021/06/18 10:59:08;;;;;;;4.90;4.25;;;;;;;;;;5095937;28;20059;-60
2021/06/18 11:01:35;;;;;;;6.50;4.28;;;;;;;;;;5096233;28;20437;-60
2021/06/18 11:04:03;;;;;;;4.53;3.00;;;;;;;;;;5095807;28;20377;-60
2021/06/18 11:06:41;;;;;;;4.78;3.70;;;;;;;;;;5095741;28;20397;-60
2021/06/18 11:09:07;;;;;;;3.20;2.85;;;;;;;;;;5095579;28;20084;-60
2021/06/18 11:11:33;;;;;;;3.25;2.92;;;;;;;;;;5095603;28;20031;-60
2021/06/18 11:14:02;;;;;;;3.63;3.17;;;;;;;;;;5095628;28;20366;-60
2021/06/18 11:16:32;;;;;;;3.60;3.20;;;;;;;;;;5095576;28;20043;-60
2021/06/18 11:19:18;;;;;;;7.68;3.53;;;;;;;;;;5095492;28;20250;-60
2021/06/18 11:21:44;;;;;;;3.75;2.95;;;;;;;;;;5095394;28;20020;-60
2021/06/18 11:24:10;;;;;;;4.15;3.75;;;;;;;;;;5095781;28;20476;-60
2021/06/18 11:26:36;;;;;;;4.88;3.20;;;;;;;;;;5095455;28;20462;-60
2021/06/18 11:29:02;;;;;;;4.35;3.75;;;;;;;;;;5095366;28;20032;-60
2021/06/18 11:31:50;;;;;;;7.15;4.10;;;;;;;;;;5095951;28;20020;-60
2021/06/18 11:34:29;;;;;;;4.22;3.33;;;;;;;;;;5095360;28;20016;-60
2021/06/18 11:36:55;;;;;;;9.27;3.70;;;;;;;;;;5095310;28;20115;-60
2021/06/18 11:39:22;;;;;;;4.75;3.42;;;;;;;;;;5095561;28;20043;-60
2021/06/18 11:41:49;;;;;;;3.85;2.70;;;;;;;;;;5095738;28;20119;-61
2021/06/18 11:44:19;;;;;;;3.53;2.67;;;;;;;;;;5094965;28;20020;-60
2021/06/18 11:46:45;;;;;;;;;;;;;;;;;;5096295;28;20066;-60
2021/06/18 11:49:12;;;;;;;4.85;3.10;;;;;;;;;;5095530;28;19955;-60
2021/06/18 11:51:38;;;;;;;2.65;2.35;;;;;;;;;;5095468;28;20115;-60
2021/06/18 11:54:04;;;;;;;4.15;2.50;;;;;;;;;;5095189;28;20055;-60
2021/06/18 11:56:31;;;;;;;3.53;2.70;;;;;;;;;;5095055;28;20028;-61
2021/06/18 11:58:57;;;;;;;3.25;2.85;;;;;;;;;;5094843;28;20111;-61
2021/06/18 12:01:25;;;;;;;3.05;2.60;;;;;;;;;;5095013;28;20108;-60
2021/06/18 12:03:54;;;;;;;3.83;3.15;;;;;;;;;;5095465;28;20161;-61
2021/06/18 12:06:25;;;;;;;3.72;3.20;;;;;;;;;;5094614;28;20016;-61
2021/06/18 12:09:00;;;;;;;3.58;2.70;;;;;;;;;;5094394;28;20059;-60
2021/06/18 12:11:27;;;;;;;4.47;2.95;;;;;;;;;;5093752;28;20031;-61
2021/06/18 12:13:54;;;;;;;4.32;3.03;;;;;;;;;;5093694;28;20029;-60
2021/06/18 12:16:21;;;;;;;3.78;2.90;;;;;;;;;;5093713;28;20526;-60
2021/06/18 12:18:47;;;;;;;3.65;2.78;;;;;;;;;;5094519;28;20036;-60
2021/06/18 12:21:13;;;;;;;3.25;2.88;;;;;;;;;;5093749;28;20416;-61
2021/06/18 12:23:40;;;;;;;3.65;2.50;;;;;;;;;;5094154;28;20107;-60
2021/06/18 12:26:06;;;;;;;3.88;2.65;;;;;;;;;;5093521;28;20020;-60
2021/06/18 12:28:32;;;;;;;3.35;2.58;;;;;;;;;;5093614;28;20036;-60
2021/06/18 12:30:58;;;;;;;2.95;2.30;;;;;;;;;;5093880;28;20081;-61
2021/06/18 12:33:24;;;;;;;3.67;3.08;;;;;;;;;;5093235;28;20509;-61
2021/06/18 12:35:51;;;;;;;3.10;2.30;;;;;;;;;;5093748;28;20024;-61
2021/06/18 12:38:17;;;;;;;3.00;2.45;;;;;;;;;;5093665;28;20422;-61
2021/06/18 12:40:47;;;;;;;2.58;2.10;;;;;;;;;;5093271;28;20031;-61
2021/06/18 12:43:14;;;;;;;3.60;2.63;;;;;;;;;;5093156;28;20024;-60
2021/06/18 12:45:43;;;;;;;3.45;2.65;;;;;;;;;;5093573;28;20032;-61
2021/06/18 12:48:09;;;;;;;3.10;2.67;;;;;;;;;;5093624;28;20031;-61
2021/06/18 12:50:36;;;;;;;2.85;2.42;;;;;;;;;;5093274;28;20024;-61
2021/06/18 12:53:04;;;;;;;4.75;2.58;;;;;;;;;;5093542;28;20021;-61
2021/06/18 12:55:50;;;;;;;3.70;2.83;;;;;;;;;;5091869;28;20035;-61
2021/06/18 12:58:20;;;;;;;3.88;2.70;;;;;;;;;;5093097;28;20056;-61
2021/06/18 13:00:49;;;;;;;8.77;2.65;;;;;;;;;;5093017;28;20032;-61
2021/06/18 13:03:15;;;;;;;4.28;2.95;;;;;;;;;;5092998;28;20077;-61
2021/06/18 13:05:52;;;;;;;2.65;2.13;;;;;;;;;;5093415;28;20051;-61
2021/06/18 13:08:18;;;;;;;3.97;1.90;;;;;;;;;;5090256;28;67998;-61
2021/06/18 13:10:45;;;;;;;4.57;2.70;;;;;;;;;;5093731;28;20484;-60
2021/06/18 13:13:19;;;;;;;5.28;2.47;;;;;;;;;;5093761;28;20016;-61
2021/06/18 13:15:45;;;;;;;4.82;2.78;;;;;;;;;;5093921;28;20028;-61
2021/06/18 13:18:11;;;;;;;3.58;2.17;;;;;;;;;;5093691;28;20020;-61
2021/06/18 13:20:39;;;;;;;3.25;2.15;;;;;;;;;;5093477;28;20035;-61
2021/06/18 13:23:23;;;;;;;3.67;2.38;;;;;;;;;;5094058;28;20028;-61
2021/06/18 13:25:49;;;;;;;5.72;3.17;;;;;;;;;;5093704;28;20073;-60
2021/06/18 13:28:34;;;;;;;5.82;3.58;;;;;;;;;;5093646;28;20033;-61
2021/06/18 13:31:00;;;;;;;5.15;2.50;;;;;;;;;;5093691;28;20049;-61
2021/06/18 13:33:26;;;;;;;2.92;2.40;;;;;;;;;;5093617;28;20382;-61
2021/06/18 13:35:52;;;;;;;4.70;2.35;;;;;;;;;;5094116;28;20043;-61
2021/06/18 13:38:18;;;;;;;4.53;2.30;;;;;;;;;;5093543;28;20032;-60
2021/06/18 13:40:46;;;;;;;3.58;2.42;;;;;;;;;;5093550;28;20074;-62
2021/06/18 13:43:12;;;;;;;2.72;2.03;;;;;;;;;;5093565;28;20029;-61
2021/06/18 13:45:38;;;;;;;4.78;2.92;;;;;;;;;;5093512;28;20020;-61
2021/06/18 13:48:05;;;;;;;4.05;3.00;;;;;;;;;;5093086;28;20350;-61
2021/06/18 13:50:37;;;;;;;3.30;2.33;;;;;;;;;;5093410;28;20043;-61
2021/06/18 13:53:03;;;;;;;4.15;2.33;;;;;;;;;;5094262;28;20050;-61
2021/06/18 13:55:29;;;;;;;5.03;3.20;;;;;;;;;;5093127;28;20100;-61
2021/06/18 13:57:55;;;;;;;3.00;2.58;;;;;;;;;;5093215;28;20043;-61
2021/06/18 14:00:22;;;;;;;3.15;2.30;;;;;;;;;;5093894;28;20477;-60
2021/06/18 14:02:48;;;;;;;3.83;2.60;;;;;;;;;;5093354;28;20051;-61
2021/06/18 14:05:14;;;;;;;3.85;2.70;;;;;;;;;;5093330;28;20024;-61
2021/06/18 14:07:40;;;;;;;3.25;2.25;;;;;;;;;;5096811;28;20059;-60
2021/06/18 14:10:07;;;;;;;3.53;2.78;;;;;;;;;;5096468;28;20482;-61
2021/06/18 14:12:35;;;;;;;5.70;3.22;;;;;;;;;;5096798;28;20039;-61
2021/06/18 14:15:03;;;;;;;6.22;3.33;;;;;;;;;;5096806;28;20020;-61
2021/06/18 14:17:30;;;;;;;4.57;3.38;;;;;;;;;;5096823;28;20119;-60
2021/06/18 14:19:56;;;;;;;7.03;3.30;;;;;;;;;;5096544;28;20033;-61
2021/06/18 14:22:22;;;;;;;4.72;3.20;;;;;;;;;;5096688;28;20024;-59
2021/06/18 14:24:48;;;;;;;4.35;2.90;;;;;;;;;;5096640;28;20032;-58
2021/06/18 14:27:14;;;;;;;7.25;3.05;;;;;;;;;;5096201;28;20061;-59
2021/06/18 14:29:40;;;;;;;5.10;3.30;;;;;;;;;;5097200;28;20020;-58
2021/06/18 14:32:07;;;;;;;6.55;3.25;;;;;;;;;;5097074;28;20028;-59
2021/06/18 14:34:33;;;;;;;3.17;2.75;;;;;;;;;;5096961;28;20028;-58
2021/06/18 14:36:59;;;;;;;4.05;2.72;;;;;;;;;;5096910;28;20032;-60
2021/06/18 14:39:25;;;;;;;4.35;3.17;;;;;;;;;;5097114;28;20013;-60
2021/06/18 14:41:52;;;;;;;3.45;2.92;;;;;;;;;;5097146;28;20035;-60
2021/06/18 14:44:17;;;;;;;4.35;2.80;;;;;;;;;;5096252;28;20027;-60
2021/06/18 14:46:43;;;;;;;5.03;3.45;;;;;;;;;;5096678;28;20020;-60